sensor_id;sensor_type;location;lat;lon;timestamp;pressure;altitude;pressure_sealevel;temperature;humidity
1726;BME280;41776;48.260;8.928;2023-02-28T00:01:13;52610.75;;;-145.69;100.00
1726;BME280;41776;48.260;8.928;2023-02-28T00:03:40;52590.94;;;-145.69;100.00
1726;BME280;41776;48.260;8.928;2023-02-28T00:06:08;52604.81;;;-145.69;100.00
1726;BME280;41776;48.260;8.928;2023-02-28T00:08:35;52592.91;;;-145.69;100.00
1726;BME280;41776;48.260;8.928;2023-02-28T00:11:02;52575.09;;;-145.69;100.00
1726;BME280;41776;48.260;8.928;2023-02-28T00:13:29;52565.19;;;-145.69;100.00
1726;BME280;41776;48.260;8.928;2023-02-28T00:16:01;52590.94;;;-145.69;100.00
1726;BME280;41776;48.260;8.928;2023-02-28T00:18:27;52588.97;;;-145.69;100.00
1726;BME280;41776;48.260;8.928;2023-02-28T00:20:54;52618.66;;;-145.69;100.00
1726;BME280;41776;48.260;8.928;2023-02-28T00:23:21;52575.09;;;-145.69;100.00
1726;BME280;41776;48.260;8.928;2023-02-28T00:25:47;52571.13;;;-145.69;100.00
1726;BME280;41776;48.260;8.928;2023-02-28T00:28:14;52569.16;;;-145.69;100.00
1726;BME280;41776;48.260;8.928;2023-02-28T00:30:40;52586.97;;;-145.69;100.00
1726;BME280;41776;48.260;8.928;2023-02-28T00:33:08;52602.81;;;-145.69;100.00
1726;BME280;41776;48.260;8.928;2023-02-28T00:35:34;52594.91;;;-145.69;100.00
1726;BME280;41776;48.260;8.928;2023-02-28T00:38:01;52543.41;;;-145.69;100.00
1726;BME280;41776;48.260;8.928;2023-02-28T00:40:27;52600.84;;;-145.69;100.00
1726;BME280;41776;48.260;8.928;2023-02-28T00:42:54;52545.38;;;-145.69;100.00
1726;BME280;41776;48.260;8.928;2023-02-28T00:45:20;52561.22;;;-145.69;100.00
1726;BME280;41776;48.260;8.928;2023-02-28T00:47:47;52571.13;;;-145.69;100.00
1726;BME280;41776;48.260;8.928;2023-02-28T00:50:16;52606.78;;;-145.69;100.00
1726;BME280;41776;48.260;8.928;2023-02-28T00:52:43;52585.00;;;-145.69;100.00
1726;BME280;41776;48.260;8.928;2023-02-28T00:55:10;52571.13;;;-145.69;100.00
1726;BME280;41776;48.260;8.928;2023-02-28T00:57:36;52555.28;;;-145.69;100.00
1726;BME280;41776;48.260;8.928;2023-02-28T01:00:04;52551.31;;;-145.69;100.00
1726;BME280;41776;48.260;8.928;2023-02-28T01:02:31;52606.78;;;-145.69;100.00
1726;BME280;41776;48.260;8.928;2023-02-28T01:04:57;52577.06;;;-145.69;100.00
1726;BME280;41776;48.260;8.928;2023-02-28T01:07:25;52598.84;;;-145.69;100.00
1726;BME280;41776;48.260;8.928;2023-02-28T01:09:52;52551.31;;;-145.69;100.00
1726;BME280;41776;48.260;8.928;2023-02-28T01:12:18;52586.97;;;-145.69;100.00
1726;BME280;41776;48.260;8.928;2023-02-28T01:14:45;52569.16;;;-145.69;100.00
1726;BME280;41776;48.260;8.928;2023-02-28T01:17:11;52581.03;;;-145.69;100.00
1726;BME280;41776;48.260;8.928;2023-02-28T01:19:38;52575.09;;;-145.69;100.00
1726;BME280;41776;48.260;8.928;2023-02-28T01:22:05;52608.75;;;-145.69;100.00
1726;BME280;41776;48.260;8.928;2023-02-28T01:24:33;52543.41;;;-145.69;100.00
1726;BME280;41776;48.260;8.928;2023-02-28T01:27:00;52600.84;;;-145.69;100.00
1726;BME280;41776;48.260;8.928;2023-02-28T01:29:26;52600.84;;;-145.69;100.00
1726;BME280;41776;48.260;8.928;2023-02-28T01:31:53;52575.09;;;-145.69;100.00
1726;BME280;41776;48.260;8.928;2023-02-28T01:34:19;52602.81;;;-145.69;100.00
1726;BME280;41776;48.260;8.928;2023-02-28T01:36:46;52539.44;;;-145.69;100.00
1726;BME280;41776;48.260;8.928;2023-02-28T01:39:12;52571.13;;;-145.69;100.00
1726;BME280;41776;48.260;8.928;2023-02-28T01:41:40;52547.38;;;-145.69;100.00
1726;BME280;41776;48.260;8.928;2023-02-28T01:47:07;52594.91;;;-145.69;100.00
1726;BME280;41776;48.260;8.928;2023-02-28T01:49:34;52579.06;;;-145.69;100.00
1726;BME280;41776;48.260;8.928;2023-02-28T01:52:01;52571.13;;;-145.69;100.00
1726;BME280;41776;48.260;8.928;2023-02-28T01:54:30;52594.91;;;-145.69;100.00
1726;BME280;41776;48.260;8.928;2023-02-28T01:57:01;52594.91;;;-145.69;100.00
1726;BME280;41776;48.260;8.928;2023-02-28T01:59:34;52604.81;;;-145.69;100.00
1726;BME280;41776;48.260;8.928;2023-02-28T02:02:03;52569.16;;;-145.69;100.00
1726;BME280;41776;48.260;8.928;2023-02-28T02:04:33;52581.03;;;-145.69;100.00
1726;BME280;41776;48.260;8.928;2023-02-28T02:07:02;52594.91;;;-145.69;100.00
1726;BME280;41776;48.260;8.928;2023-02-28T02:09:30;52573.13;;;-145.69;100.00
1726;BME280;41776;48.260;8.928;2023-02-28T02:11:57;52583.00;;;-145.69;100.00
1726;BME280;41776;48.260;8.928;2023-02-28T02:14:45;52567.16;;;-145.69;100.00
1726;BME280;41776;48.260;8.928;2023-02-28T02:17:22;52586.97;;;-145.69;100.00
1726;BME280;41776;48.260;8.928;2023-02-28T02:20:14;52616.69;;;-145.69;100.00
1726;BME280;41776;48.260;8.928;2023-02-28T02:23:11;52590.94;;;-145.69;100.00
1726;BME280;41776;48.260;8.928;2023-02-28T02:25:49;52594.91;;;-145.69;100.00
1726;BME280;41776;48.260;8.928;2023-02-28T02:28:51;52590.94;;;-145.69;100.00
1726;BME280;41776;48.260;8.928;2023-02-28T02:31:35;52563.22;;;-145.69;100.00
1726;BME280;41776;48.260;8.928;2023-02-28T02:37:13;52573.13;;;-145.69;100.00
1726;BME280;41776;48.260;8.928;2023-02-28T02:39:48;52586.97;;;-145.69;100.00
1726;BME280;41776;48.260;8.928;2023-02-28T02:42:22;52571.13;;;-145.69;100.00
1726;BME280;41776;48.260;8.928;2023-02-28T02:44:55;52606.78;;;-145.69;100.00
1726;BME280;41776;48.260;8.928;2023-02-28T02:47:26;52638.47;;;-145.69;100.00
1726;BME280;41776;48.260;8.928;2023-02-28T02:49:57;52610.75;;;-145.69;100.00
1726;BME280;41776;48.260;8.928;2023-02-28T02:52:30;52586.97;;;-145.69;100.00
1726;BME280;41776;48.260;8.928;2023-02-28T02:55:00;52586.97;;;-145.69;100.00
1726;BME280;41776;48.260;8.928;2023-02-28T02:57:32;52600.84;;;-145.69;100.00
1726;BME280;41776;48.260;8.928;2023-02-28T03:00:02;52559.25;;;-145.69;100.00
1726;BME280;41776;48.260;8.928;2023-02-28T03:02:31;52575.09;;;-145.69;100.00
1726;BME280;41776;48.260;8.928;2023-02-28T03:05:01;52573.13;;;-145.69;100.00
1726;BME280;41776;48.260;8.928;2023-02-28T03:07:30;52586.97;;;-145.69;100.00
1726;BME280;41776;48.260;8.928;2023-02-28T03:09:57;52573.13;;;-145.69;100.00
1726;BME280;41776;48.260;8.928;2023-02-28T03:12:32;52583.00;;;-145.69;100.00
1726;BME280;41776;48.260;8.928;2023-02-28T03:15:07;52610.75;;;-145.69;100.00
1726;BME280;41776;48.260;8.928;2023-02-28T03:17:44;52545.38;;;-145.69;100.00
1726;BME280;41776;48.260;8.928;2023-02-28T03:20:18;52598.84;;;-145.69;100.00
1726;BME280;41776;48.260;8.928;2023-02-28T03:22:57;52598.84;;;-145.69;100.00
1726;BME280;41776;48.260;8.928;2023-02-28T03:25:31;52577.06;;;-145.69;100.00
1726;BME280;41776;48.260;8.928;2023-02-28T03:28:07;52612.72;;;-145.69;100.00
1726;BME280;41776;48.260;8.928;2023-02-28T03:30:40;52612.72;;;-145.69;100.00
1726;BME280;41776;48.260;8.928;2023-02-28T03:33:11;52581.03;;;-145.69;100.00
1726;BME280;41776;48.260;8.928;2023-02-28T03:35:42;52618.66;;;-145.69;100.00
1726;BME280;41776;48.260;8.928;2023-02-28T03:38:15;52577.06;;;-145.69;100.00
1726;BME280;41776;48.260;8.928;2023-02-28T03:40:47;52563.22;;;-145.69;100.00
1726;BME280;41776;48.260;8.928;2023-02-28T03:43:19;52571.13;;;-145.69;100.00
1726;BME280;41776;48.260;8.928;2023-02-28T03:45:50;52586.97;;;-145.69;100.00
1726;BME280;41776;48.260;8.928;2023-02-28T03:48:20;52620.66;;;-145.69;100.00
1726;BME280;41776;48.260;8.928;2023-02-28T03:50:49;52581.03;;;-145.69;100.00
1726;BME280;41776;48.260;8.928;2023-02-28T03:53:23;52575.09;;;-145.69;100.00
1726;BME280;41776;48.260;8.928;2023-02-28T03:55:54;52594.91;;;-145.69;100.00
1726;BME280;41776;48.260;8.928;2023-02-28T03:58:27;52583.00;;;-145.69;100.00
1726;BME280;41776;48.260;8.928;2023-02-28T04:00:59;52598.84;;;-145.69;100.00
1726;BME280;41776;48.260;8.928;2023-02-28T04:03:33;52626.59;;;-145.69;100.00
1726;BME280;41776;48.260;8.928;2023-02-28T04:06:00;52600.84;;;-145.69;100.00
1726;BME280;41776;48.260;8.928;2023-02-28T04:08:28;52602.81;;;-145.69;100.00
1726;BME280;41776;48.260;8.928;2023-02-28T04:10:58;52596.88;;;-145.69;100.00
1726;BME280;41776;48.260;8.928;2023-02-28T04:13:26;52604.81;;;-145.69;100.00
1726;BME280;41776;48.260;8.928;2023-02-28T04:15:52;52592.91;;;-145.69;100.00
1726;BME280;41776;48.260;8.928;2023-02-28T04:18:19;52563.22;;;-145.69;100.00
1726;BME280;41776;48.260;8.928;2023-02-28T04:20:45;52600.84;;;-145.69;100.00
1726;BME280;41776;48.260;8.928;2023-02-28T04:23:12;52620.66;;;-145.69;100.00
1726;BME280;41776;48.260;8.928;2023-02-28T04:25:40;52602.81;;;-145.69;100.00
1726;BME280;41776;48.260;8.928;2023-02-28T04:28:06;52575.09;;;-145.69;100.00
1726;BME280;41776;48.260;8.928;2023-02-28T04:30:33;52594.91;;;-145.69;100.00
1726;BME280;41776;48.260;8.928;2023-02-28T04:33:00;52616.69;;;-145.69;100.00
1726;BME280;41776;48.260;8.928;2023-02-28T04:35:27;52575.09;;;-145.69;100.00
1726;BME280;41776;48.260;8.928;2023-02-28T04:37:53;52585.00;;;-145.69;100.00
1726;BME280;41776;48.260;8.928;2023-02-28T04:40:20;52551.31;;;-145.69;100.00
1726;BME280;41776;48.260;8.928;2023-02-28T04:42:47;52616.69;;;-145.69;100.00
1726;BME280;41776;48.260;8.928;2023-02-28T04:45:14;52632.53;;;-145.69;100.00
1726;BME280;41776;48.260;8.928;2023-02-28T04:47:42;52594.91;;;-145.69;100.00
1726;BME280;41776;48.260;8.928;2023-02-28T04:50:09;52567.16;;;-145.69;100.00
1726;BME280;41776;48.260;8.928;2023-02-28T04:52:36;52610.75;;;-145.69;100.00
1726;BME280;41776;48.260;8.928;2023-02-28T04:55:03;52577.06;;;-145.69;100.00
1726;BME280;41776;48.260;8.928;2023-02-28T04:57:30;52579.06;;;-145.69;100.00
1726;BME280;41776;48.260;8.928;2023-02-28T04:59:58;52588.97;;;-145.69;100.00
1726;BME280;41776;48.260;8.928;2023-02-28T05:02:24;52598.84;;;-145.69;100.00
1726;BME280;41776;48.260;8.928;2023-02-28T05:04:51;52571.13;;;-145.69;100.00
1726;BME280;41776;48.260;8.928;2023-02-28T05:07:17;52590.94;;;-145.69;100.00
1726;BME280;41776;48.260;8.928;2023-02-28T05:09:44;52555.28;;;-145.69;100.00
1726;BME280;41776;48.260;8.928;2023-02-28T05:12:10;52573.13;;;-145.69;100.00
1726;BME280;41776;48.260;8.928;2023-02-28T05:14:37;52588.97;;;-145.69;100.00
1726;BME280;41776;48.260;8.928;2023-02-28T05:17:04;52598.84;;;-145.69;100.00
1726;BME280;41776;48.260;8.928;2023-02-28T05:19:31;52598.84;;;-145.69;100.00
1726;BME280;41776;48.260;8.928;2023-02-28T05:21:57;52604.81;;;-145.69;100.00
1726;BME280;41776;48.260;8.928;2023-02-28T05:24:24;52604.81;;;-145.69;100.00
1726;BME280;41776;48.260;8.928;2023-02-28T05:26:53;52614.72;;;-145.69;100.00
1726;BME280;41776;48.260;8.928;2023-02-28T05:29:19;52614.72;;;-145.69;100.00
1726;BME280;41776;48.260;8.928;2023-02-28T05:31:46;52600.84;;;-145.69;100.00
1726;BME280;41776;48.260;8.928;2023-02-28T05:34:14;52600.84;;;-145.69;100.00
1726;BME280;41776;48.260;8.928;2023-02-28T05:36:41;52571.13;;;-145.69;100.00
1726;BME280;41776;48.260;8.928;2023-02-28T05:39:08;52590.94;;;-145.69;100.00
1726;BME280;41776;48.260;8.928;2023-02-28T05:41:38;52565.19;;;-145.69;100.00
1726;BME280;41776;48.260;8.928;2023-02-28T05:44:05;52606.78;;;-145.69;100.00
1726;BME280;41776;48.260;8.928;2023-02-28T05:46:31;52598.84;;;-145.69;100.00
1726;BME280;41776;48.260;8.928;2023-02-28T05:48:58;52610.75;;;-145.69;100.00
1726;BME280;41776;48.260;8.928;2023-02-28T05:51:27;52606.78;;;-145.69;100.00
1726;BME280;41776;48.260;8.928;2023-02-28T05:53:53;52577.06;;;-145.69;100.00
1726;BME280;41776;48.260;8.928;2023-02-28T05:56:20;52626.59;;;-145.69;100.00
1726;BME280;41776;48.260;8.928;2023-02-28T05:58:47;52555.28;;;-145.69;100.00
1726;BME280;41776;48.260;8.928;2023-02-28T06:01:26;52598.84;;;-145.69;100.00
1726;BME280;41776;48.260;8.928;2023-02-28T06:03:58;52579.06;;;-145.69;100.00
1726;BME280;41776;48.260;8.928;2023-02-28T06:06:24;52628.56;;;-145.69;100.00
1726;BME280;41776;48.260;8.928;2023-02-28T06:08:52;52579.06;;;-145.69;100.00
1726;BME280;41776;48.260;8.928;2023-02-28T06:11:19;52581.03;;;-145.69;100.00
1726;BME280;41776;48.260;8.928;2023-02-28T06:13:46;52598.84;;;-145.69;100.00
1726;BME280;41776;48.260;8.928;2023-02-28T06:16:12;52610.75;;;-145.69;100.00
1726;BME280;41776;48.260;8.928;2023-02-28T06:18:39;52569.16;;;-145.69;100.00
1726;BME280;41776;48.260;8.928;2023-02-28T06:21:05;52569.16;;;-145.69;100.00
1726;BME280;41776;48.260;8.928;2023-02-28T06:23:32;52579.06;;;-145.69;100.00
1726;BME280;41776;48.260;8.928;2023-02-28T06:25:59;52583.00;;;-145.69;100.00
1726;BME280;41776;48.260;8.928;2023-02-28T06:28:27;52575.09;;;-145.69;100.00
1726;BME280;41776;48.260;8.928;2023-02-28T06:30:53;52590.94;;;-145.69;100.00
1726;BME280;41776;48.260;8.928;2023-02-28T06:33:20;52575.09;;;-145.69;100.00
1726;BME280;41776;48.260;8.928;2023-02-28T06:35:47;52628.56;;;-145.69;100.00
1726;BME280;41776;48.260;8.928;2023-02-28T06:38:14;52602.81;;;-145.69;100.00
1726;BME280;41776;48.260;8.928;2023-02-28T06:40:40;52567.16;;;-145.69;100.00
1726;BME280;41776;48.260;8.928;2023-02-28T06:43:08;52590.94;;;-145.69;100.00
1726;BME280;41776;48.260;8.928;2023-02-28T06:45:41;52581.03;;;-145.69;100.00
1726;BME280;41776;48.260;8.928;2023-02-28T06:48:08;52583.00;;;-145.69;100.00
1726;BME280;41776;48.260;8.928;2023-02-28T06:50:35;52606.78;;;-145.69;100.00
1726;BME280;41776;48.260;8.928;2023-02-28T06:53:02;52585.00;;;-145.69;100.00
1726;BME280;41776;48.260;8.928;2023-02-28T06:55:28;52583.00;;;-145.69;100.00
1726;BME280;41776;48.260;8.928;2023-02-28T06:57:54;52586.97;;;-145.69;100.00
1726;BME280;41776;48.260;8.928;2023-02-28T07:00:23;52598.84;;;-145.69;100.00
1726;BME280;41776;48.260;8.928;2023-02-28T07:02:50;52575.09;;;-145.69;100.00
1726;BME280;41776;48.260;8.928;2023-02-28T07:05:16;52583.00;;;-145.69;100.00
1726;BME280;41776;48.260;8.928;2023-02-28T07:07:43;52610.75;;;-145.69;100.00
1726;BME280;41776;48.260;8.928;2023-02-28T07:10:12;52614.72;;;-145.69;100.00
1726;BME280;41776;48.260;8.928;2023-02-28T07:12:42;52555.28;;;-145.69;100.00
1726;BME280;41776;48.260;8.928;2023-02-28T07:15:09;52596.88;;;-145.69;100.00
1726;BME280;41776;48.260;8.928;2023-02-28T07:17:37;52579.06;;;-145.69;100.00
1726;BME280;41776;48.260;8.928;2023-02-28T07:20:04;52608.75;;;-145.69;100.00
1726;BME280;41776;48.260;8.928;2023-02-28T07:22:31;52618.66;;;-145.69;100.00
1726;BME280;41776;48.260;8.928;2023-02-28T07:24:57;52610.75;;;-145.69;100.00
1726;BME280;41776;48.260;8.928;2023-02-28T07:27:24;52590.94;;;-145.69;100.00
1726;BME280;41776;48.260;8.928;2023-02-28T07:29:51;52632.53;;;-145.69;100.00
1726;BME280;41776;48.260;8.928;2023-02-28T07:32:17;52571.13;;;-145.69;100.00
1726;BME280;41776;48.260;8.928;2023-02-28T07:34:45;52602.81;;;-145.69;100.00
1726;BME280;41776;48.260;8.928;2023-02-28T07:37:12;52590.94;;;-145.69;100.00
1726;BME280;41776;48.260;8.928;2023-02-28T07:39:38;52606.78;;;-145.69;100.00
1726;BME280;41776;48.260;8.928;2023-02-28T07:42:07;52571.13;;;-145.69;100.00
1726;BME280;41776;48.260;8.928;2023-02-28T07:44:35;52632.53;;;-145.69;100.00
1726;BME280;41776;48.260;8.928;2023-02-28T07:47:05;52598.84;;;-145.69;100.00
1726;BME280;41776;48.260;8.928;2023-02-28T07:49:32;52622.63;;;-145.69;100.00
1726;BME280;41776;48.260;8.928;2023-02-28T07:52:00;52581.03;;;-145.69;100.00
1726;BME280;41776;48.260;8.928;2023-02-28T07:54:26;52606.78;;;-145.69;100.00
1726;BME280;41776;48.260;8.928;2023-02-28T07:56:53;52573.13;;;-145.69;100.00
1726;BME280;41776;48.260;8.928;2023-02-28T07:59:19;52600.84;;;-145.69;100.00
1726;BME280;41776;48.260;8.928;2023-02-28T08:01:45;52594.91;;;-145.69;100.00
1726;BME280;41776;48.260;8.928;2023-02-28T08:04:14;52577.06;;;-145.69;100.00
1726;BME280;41776;48.260;8.928;2023-02-28T08:06:41;52612.72;;;-145.69;100.00
1726;BME280;41776;48.260;8.928;2023-02-28T08:09:09;52583.00;;;-145.69;100.00
1726;BME280;41776;48.260;8.928;2023-02-28T08:11:36;52573.13;;;-145.69;100.00
1726;BME280;41776;48.260;8.928;2023-02-28T08:14:02;52604.81;;;-145.69;100.00
1726;BME280;41776;48.260;8.928;2023-02-28T08:16:29;52579.06;;;-145.69;100.00
1726;BME280;41776;48.260;8.928;2023-02-28T08:18:55;52569.16;;;-145.69;100.00
1726;BME280;41776;48.260;8.928;2023-02-28T08:21:21;52606.78;;;-145.69;100.00
1726;BME280;41776;48.260;8.928;2023-02-28T08:23:49;52583.00;;;-145.69;100.00
1726;BME280;41776;48.260;8.928;2023-02-28T08:26:17;52579.06;;;-145.69;100.00
1726;BME280;41776;48.260;8.928;2023-02-28T08:28:44;52581.03;;;-145.69;100.00
1726;BME280;41776;48.260;8.928;2023-02-28T08:31:12;52602.81;;;-145.69;100.00
1726;BME280;41776;48.260;8.928;2023-02-28T08:33:40;52577.06;;;-145.69;100.00
1726;BME280;41776;48.260;8.928;2023-02-28T08:36:08;52569.16;;;-145.69;100.00
1726;BME280;41776;48.260;8.928;2023-02-28T08:38:35;52590.94;;;-145.69;100.00
1726;BME280;41776;48.260;8.928;2023-02-28T08:41:04;52590.94;;;-145.69;100.00
1726;BME280;41776;48.260;8.928;2023-02-28T08:43:34;52598.84;;;-145.69;100.00
1726;BME280;41776;48.260;8.928;2023-02-28T08:46:00;52610.75;;;-145.69;100.00
1726;BME280;41776;48.260;8.928;2023-02-28T08:48:28;52523.59;;;-145.69;100.00
1726;BME280;41776;48.260;8.928;2023-02-28T08:50:56;52575.09;;;-145.69;100.00
1726;BME280;41776;48.260;8.928;2023-02-28T08:53:23;52571.13;;;-145.69;100.00
1726;BME280;41776;48.260;8.928;2023-02-28T08:55:56;52575.09;;;-145.69;100.00
1726;BME280;41776;48.260;8.928;2023-02-28T08:58:23;52581.03;;;-145.69;100.00
1726;BME280;41776;48.260;8.928;2023-02-28T09:00:51;52583.00;;;-145.69;100.00
1726;BME280;41776;48.260;8.928;2023-02-28T09:03:18;52579.06;;;-145.69;100.00
1726;BME280;41776;48.260;8.928;2023-02-28T09:05:51;52583.00;;;-145.69;100.00
1726;BME280;41776;48.260;8.928;2023-02-28T09:08:18;52600.84;;;-145.69;100.00
1726;BME280;41776;48.260;8.928;2023-02-28T09:10:44;52590.94;;;-145.69;100.00
1726;BME280;41776;48.260;8.928;2023-02-28T09:13:11;52618.66;;;-145.69;100.00
1726;BME280;41776;48.260;8.928;2023-02-28T09:15:37;52557.28;;;-145.69;100.00
1726;BME280;41776;48.260;8.928;2023-02-28T09:18:05;52616.69;;;-145.69;100.00
1726;BME280;41776;48.260;8.928;2023-02-28T09:20:32;52561.22;;;-145.69;100.00
1726;BME280;41776;48.260;8.928;2023-02-28T09:22:59;52581.03;;;-145.69;100.00
1726;BME280;41776;48.260;8.928;2023-02-28T09:25:25;52585.00;;;-145.69;100.00
1726;BME280;41776;48.260;8.928;2023-02-28T09:27:51;52598.84;;;-145.69;100.00
1726;BME280;41776;48.260;8.928;2023-02-28T09:30:18;52579.06;;;-145.69;100.00
1726;BME280;41776;48.260;8.928;2023-02-28T09:32:44;52614.72;;;-145.69;100.00
1726;BME280;41776;48.260;8.928;2023-02-28T09:35:18;52598.84;;;-145.69;100.00
1726;BME280;41776;48.260;8.928;2023-02-28T09:37:46;52583.00;;;-145.69;100.00
1726;BME280;41776;48.260;8.928;2023-02-28T09:40:14;52571.13;;;-145.69;100.00
1726;BME280;41776;48.260;8.928;2023-02-28T09:42:44;52610.75;;;-145.69;100.00
1726;BME280;41776;48.260;8.928;2023-02-28T09:45:22;52586.97;;;-145.69;100.00
1726;BME280;41776;48.260;8.928;2023-02-28T09:47:52;52583.00;;;-145.69;100.00
1726;BME280;41776;48.260;8.928;2023-02-28T09:50:29;52575.09;;;-145.69;100.00
1726;BME280;41776;48.260;8.928;2023-02-28T09:52:58;52590.94;;;-145.69;100.00
1726;BME280;41776;48.260;8.928;2023-02-28T09:55:28;52598.84;;;-145.69;100.00
1726;BME280;41776;48.260;8.928;2023-02-28T09:57:56;52579.06;;;-145.69;100.00
1726;BME280;41776;48.260;8.928;2023-02-28T10:00:30;52563.22;;;-145.69;100.00
1726;BME280;41776;48.260;8.928;2023-02-28T10:03:10;52563.22;;;-145.69;100.00
1726;BME280;41776;48.260;8.928;2023-02-28T10:05:49;52569.16;;;-145.69;100.00
1726;BME280;41776;48.260;8.928;2023-02-28T10:08:22;52571.13;;;-145.69;100.00
1726;BME280;41776;48.260;8.928;2023-02-28T10:10:54;52579.06;;;-145.69;100.00
1726;BME280;41776;48.260;8.928;2023-02-28T10:13:25;52583.00;;;-145.69;100.00
1726;BME280;41776;48.260;8.928;2023-02-28T10:15:57;52592.91;;;-145.69;100.00
1726;BME280;41776;48.260;8.928;2023-02-28T10:18:28;52579.06;;;-145.69;100.00
1726;BME280;41776;48.260;8.928;2023-02-28T10:20:58;52541.44;;;-145.69;100.00
1726;BME280;41776;48.260;8.928;2023-02-28T10:23:28;52571.13;;;-145.69;100.00
1726;BME280;41776;48.260;8.928;2023-02-28T10:26:00;52575.09;;;-145.69;100.00
1726;BME280;41776;48.260;8.928;2023-02-28T10:28:29;52610.75;;;-145.69;100.00
1726;BME280;41776;48.260;8.928;2023-02-28T10:30:56;52569.16;;;-145.69;100.00
1726;BME280;41776;48.260;8.928;2023-02-28T10:33:25;52575.09;;;-145.69;100.00
1726;BME280;41776;48.260;8.928;2023-02-28T10:35:52;52559.25;;;-145.69;100.00
1726;BME280;41776;48.260;8.928;2023-02-28T10:38:22;52561.22;;;-145.69;100.00
1726;BME280;41776;48.260;8.928;2023-02-28T10:40:49;52557.28;;;-145.69;100.00
1726;BME280;41776;48.260;8.928;2023-02-28T10:43:20;52571.13;;;-145.69;100.00
1726;BME280;41776;48.260;8.928;2023-02-28T10:45:57;52567.16;;;-145.69;100.00
1726;BME280;41776;48.260;8.928;2023-02-28T10:48:29;52585.00;;;-145.69;100.00
1726;BME280;41776;48.260;8.928;2023-02-28T10:50:56;52551.31;;;-145.69;100.00
1726;BME280;41776;48.260;8.928;2023-02-28T10:53:32;52594.91;;;-145.69;99.13
1726;BME280;41776;48.260;8.928;2023-02-28T10:56:01;52563.22;;;-145.69;100.00
1726;BME280;41776;48.260;8.928;2023-02-28T10:58:30;52557.28;;;-145.69;100.00
1726;BME280;41776;48.260;8.928;2023-02-28T11:00:58;52537.47;;;-145.69;100.00
1726;BME280;41776;48.260;8.928;2023-02-28T11:03:30;52585.00;;;-145.69;98.58
1726;BME280;41776;48.260;8.928;2023-02-28T11:05:57;52555.28;;;-145.69;95.85
1726;BME280;41776;48.260;8.928;2023-02-28T11:08:24;52563.22;;;-145.69;97.40
1726;BME280;41776;48.260;8.928;2023-02-28T11:10:56;52565.19;;;-145.69;98.21
1726;BME280;41776;48.260;8.928;2023-02-28T11:13:33;52567.16;;;-145.69;98.51
1726;BME280;41776;48.260;8.928;2023-02-28T11:16:02;52569.16;;;-145.69;96.37
1726;BME280;41776;48.260;8.928;2023-02-28T11:18:35;52537.47;;;-145.69;93.58
1726;BME280;41776;48.260;8.928;2023-02-28T11:21:04;52571.13;;;-145.69;92.56
1726;BME280;41776;48.260;8.928;2023-02-28T11:23:34;52579.06;;;-145.69;94.21
1726;BME280;41776;48.260;8.928;2023-02-28T11:26:04;52549.34;;;-145.69;91.06
1726;BME280;41776;48.260;8.928;2023-02-28T11:28:36;52563.22;;;-145.69;93.55
1726;BME280;41776;48.260;8.928;2023-02-28T11:31:15;52529.53;;;-145.69;93.11
1726;BME280;41776;48.260;8.928;2023-02-28T11:33:43;52549.34;;;-145.69;88.37
1726;BME280;41776;48.260;8.928;2023-02-28T11:36:13;52559.25;;;-145.69;92.22
1726;BME280;41776;48.260;8.928;2023-02-28T11:38:40;52545.38;;;-145.69;95.62
1726;BME280;41776;48.260;8.928;2023-02-28T11:41:22;52573.13;;;-145.69;95.75
1726;BME280;41776;48.260;8.928;2023-02-28T11:44:05;52561.22;;;-145.69;94.91
1726;BME280;41776;48.260;8.928;2023-02-28T11:46:37;52557.28;;;-145.69;93.36
1726;BME280;41776;48.260;8.928;2023-02-28T11:49:15;52561.22;;;-145.69;88.93
1726;BME280;41776;48.260;8.928;2023-02-28T11:51:53;52575.09;;;-145.69;91.62
1726;BME280;41776;48.260;8.928;2023-02-28T11:54:33;52547.38;;;-145.69;90.95
1726;BME280;41776;48.260;8.928;2023-02-28T11:57:21;52561.22;;;-145.69;92.29
1726;BME280;41776;48.260;8.928;2023-02-28T12:00:02;52559.25;;;-145.69;91.76
1726;BME280;41776;48.260;8.928;2023-02-28T12:02:48;52555.28;;;-145.69;91.32
1726;BME280;41776;48.260;8.928;2023-02-28T12:05:24;52545.38;;;-145.69;85.38
1726;BME280;41776;48.260;8.928;2023-02-28T12:08:05;52537.47;;;-145.69;90.28
1726;BME280;41776;48.260;8.928;2023-02-28T12:10:37;52525.59;;;-145.69;87.41
1726;BME280;41776;48.260;8.928;2023-02-28T12:13:16;52581.03;;;-145.69;86.22
1726;BME280;41776;48.260;8.928;2023-02-28T12:16:12;52551.31;;;-145.69;86.02
1726;BME280;41776;48.260;8.928;2023-02-28T12:19:07;52539.44;;;-145.69;82.08
1726;BME280;41776;48.260;8.928;2023-02-28T12:21:48;52563.22;;;-145.69;81.15
1726;BME280;41776;48.260;8.928;2023-02-28T12:24:31;52535.47;;;-145.69;83.11
1726;BME280;41776;48.260;8.928;2023-02-28T12:27:05;52541.44;;;-145.69;77.80
1726;BME280;41776;48.260;8.928;2023-02-28T12:29:45;52553.31;;;-145.69;85.14
1726;BME280;41776;48.260;8.928;2023-02-28T12:32:16;52519.63;;;-145.69;75.67
1726;BME280;41776;48.260;8.928;2023-02-28T12:34:49;52511.72;;;-145.69;80.85
1726;BME280;41776;48.260;8.928;2023-02-28T12:37:20;52535.47;;;-145.69;76.62
1726;BME280;41776;48.260;8.928;2023-02-28T12:39:52;52521.63;;;-145.69;71.86
1726;BME280;41776;48.260;8.928;2023-02-28T12:42:25;52545.38;;;-145.69;75.95
1726;BME280;41776;48.260;8.928;2023-02-28T12:44:59;52468.16;;;-145.69;71.24
1726;BME280;41776;48.260;8.928;2023-02-28T12:47:27;52545.38;;;-145.69;74.02
1726;BME280;41776;48.260;8.928;2023-02-28T12:49:57;52539.44;;;-145.69;73.50
1726;BME280;41776;48.260;8.928;2023-02-28T12:52:29;52553.31;;;-145.69;70.14
1726;BME280;41776;48.260;8.928;2023-02-28T12:55:02;52555.28;;;-145.69;67.09
1726;BME280;41776;48.260;8.928;2023-02-28T12:57:34;52533.50;;;-145.69;65.81
1726;BME280;41776;48.260;8.928;2023-02-28T13:00:10;52547.38;;;-145.69;71.52